createdAt,value
2018-05-23T00:00:48.899Z,4.20
2018-05-23T00:04:52.203Z,4.10
2018-05-23T00:08:55.503Z,4.30
2018-05-23T00:12:58.799Z,4.30
2018-05-23T00:17:02.083Z,4.07
2018-05-23T00:21:04.636Z,4.53
2018-05-23T00:25:07.176Z,4.33
2018-05-23T00:29:10.478Z,4.80
2018-05-23T00:33:13.783Z,4.70
2018-05-23T00:37:16.291Z,5.13
2018-05-23T00:41:19.623Z,4.93
2018-05-23T00:45:22.157Z,4.90
2018-05-23T00:49:24.697Z,4.47
2018-05-23T00:53:27.236Z,4.30
2018-05-23T00:57:30.507Z,4.03
2018-05-23T01:01:33.045Z,4.43
2018-05-23T01:05:35.576Z,4.30
2018-05-23T01:09:38.122Z,4.70
2018-05-23T01:13:40.657Z,4.67
2018-05-23T01:17:43.173Z,4.20
2018-05-23T01:21:45.717Z,4.30
2018-05-23T01:25:48.265Z,4.10
2018-05-23T01:29:50.800Z,4.43
2018-05-23T01:33:54.105Z,3.90
2018-05-23T01:37:56.624Z,3.80
2018-05-23T01:41:59.164Z,4.30
2018-05-23T01:46:01.706Z,4.20
2018-05-23T01:50:04.252Z,4.33
2018-05-23T01:54:06.800Z,4.10
2018-05-23T01:58:09.312Z,3.90
2018-05-23T02:02:11.861Z,4.20
2018-05-23T02:06:14.396Z,4.30
2018-05-23T02:10:16.963Z,4.00
2018-05-23T02:14:19.521Z,4.30
2018-05-23T02:18:22.057Z,4.50
2018-05-23T02:22:24.577Z,4.40
2018-05-23T02:26:27.116Z,4.30
2018-05-23T02:30:29.657Z,4.37
2018-05-23T02:34:32.196Z,4.30
2018-05-23T02:38:34.746Z,4.13
2018-05-23T02:42:37.265Z,4.70
2018-05-23T02:46:39.805Z,4.20
2018-05-23T02:50:42.340Z,4.07
2018-05-23T02:54:44.879Z,4.20
2018-05-23T02:58:47.424Z,4.10
2018-05-23T03:02:49.971Z,3.73
2018-05-23T03:06:52.512Z,4.63
2018-05-23T03:10:55.052Z,4.10
2018-05-23T03:14:57.587Z,4.23
2018-05-23T03:19:00.133Z,3.80
2018-05-23T03:23:02.656Z,4.00
2018-05-23T03:27:05.197Z,4.00
2018-05-23T03:31:07.740Z,3.90
2018-05-23T03:35:10.287Z,4.70
2018-05-23T03:39:12.840Z,4.03
2018-05-23T03:43:15.365Z,4.07
2018-05-23T03:47:17.909Z,4.07
2018-05-23T03:51:20.467Z,4.30
2018-05-23T03:55:23.084Z,4.20
2018-05-23T03:59:37.291Z,4.40
2018-05-23T04:03:51.396Z,4.03
2018-05-23T04:07:53.928Z,4.10
2018-05-23T04:11:56.464Z,4.07
2018-05-23T04:15:59.021Z,4.20
2018-05-23T04:20:01.552Z,3.97
2018-05-23T04:24:04.111Z,3.83
2018-05-23T04:28:06.657Z,3.60
2018-05-23T04:32:09.200Z,3.90
2018-05-23T04:36:11.749Z,4.17
2018-05-23T04:40:14.295Z,3.73
2018-05-23T04:44:16.820Z,4.07
2018-05-23T04:48:19.361Z,3.53
2018-05-23T04:52:21.901Z,4.27
2018-05-23T04:56:24.438Z,4.17
2018-05-23T05:00:26.978Z,3.63
2018-05-23T05:04:30.277Z,4.20
2018-05-23T05:08:32.799Z,3.57
2018-05-23T05:12:35.343Z,3.80
2018-05-23T05:16:37.880Z,4.70
2018-05-23T05:20:40.436Z,3.97
2018-05-23T05:24:42.980Z,4.27
2018-05-23T05:28:45.505Z,4.00
2018-05-23T05:32:48.045Z,3.93
2018-05-23T05:36:50.579Z,3.57
2018-05-23T05:40:53.117Z,3.53
2018-05-23T05:44:55.663Z,3.77
2018-05-23T05:48:58.188Z,3.90
2018-05-23T05:53:00.724Z,4.30
2018-05-23T05:57:03.260Z,4.00
2018-05-23T06:01:05.806Z,3.93
2018-05-23T06:05:08.352Z,4.23
2018-05-23T06:09:10.937Z,4.40
2018-05-23T06:13:13.436Z,4.30
2018-05-23T06:17:15.969Z,4.60
2018-05-23T06:21:18.512Z,4.30
2018-05-23T06:25:21.048Z,4.50
2018-05-23T06:29:23.568Z,4.40
2018-05-23T06:33:26.872Z,4.03
2018-05-23T06:37:29.403Z,4.03
2018-05-23T06:41:31.944Z,3.93
2018-05-23T06:45:34.486Z,3.80
2018-05-23T06:49:37.003Z,4.63
2018-05-23T06:53:39.549Z,4.17
2018-05-23T06:57:42.092Z,4.40
2018-05-23T07:01:44.633Z,4.20
2018-05-23T07:05:47.200Z,4.30
2018-05-23T07:09:49.709Z,3.97
2018-05-23T07:13:52.248Z,4.57
2018-05-23T07:17:54.904Z,4.47
2018-05-23T07:21:58.106Z,4.23
2018-05-23T07:26:00.645Z,4.50
2018-05-23T07:30:03.168Z,4.10
2018-05-23T07:34:06.473Z,4.57
2018-05-23T07:38:09.780Z,4.30
2018-05-23T07:42:12.332Z,4.10
2018-05-23T07:46:14.872Z,4.67
2018-05-23T07:50:17.389Z,4.77
2018-05-23T07:54:19.924Z,4.47
2018-05-23T07:58:22.456Z,4.20
2018-05-23T08:02:24.984Z,4.20
2018-05-23T08:06:28.288Z,4.83
2018-05-23T08:10:30.841Z,4.17
2018-05-23T08:14:33.368Z,4.70
2018-05-23T08:18:35.908Z,5.13
2018-05-23T08:22:38.509Z,4.17
2018-05-23T08:26:41.000Z,4.03
2018-05-23T08:30:43.536Z,4.43
2018-05-23T08:34:46.066Z,4.63
2018-05-23T08:38:48.616Z,4.63
2018-05-23T08:42:51.148Z,4.07
2018-05-23T08:46:53.684Z,3.87
2018-05-23T08:50:56.228Z,3.97
2018-05-23T08:54:59.507Z,4.17
2018-05-23T08:59:02.041Z,3.80
2018-05-23T09:03:04.576Z,4.53
2018-05-23T09:07:07.117Z,3.80
2018-05-23T09:11:09.648Z,3.60
2018-05-23T09:15:12.168Z,3.77
2018-05-23T09:19:14.708Z,3.37
2018-05-23T09:23:17.247Z,3.40
2018-05-23T09:27:19.779Z,3.40
2018-05-23T09:31:22.316Z,3.67
2018-05-23T09:35:24.833Z,3.50
2018-05-23T09:39:27.381Z,3.43
2018-05-23T09:43:29.916Z,3.47
2018-05-23T09:47:32.453Z,3.33
2018-05-23T09:51:34.988Z,3.13
2018-05-23T09:55:37.504Z,3.33
2018-05-23T09:59:40.040Z,3.17
2018-05-23T10:03:42.576Z,3.27
2018-05-23T10:07:45.112Z,3.00
2018-05-23T10:11:47.651Z,3.07
2018-05-23T10:15:50.166Z,3.50
2018-05-23T10:19:52.704Z,3.27
2018-05-23T10:23:55.244Z,3.30
2018-05-23T10:27:57.785Z,3.03
2018-05-23T10:32:00.311Z,3.40
2018-05-23T10:36:02.828Z,3.00
2018-05-23T10:40:05.376Z,2.97
2018-05-23T10:44:07.904Z,2.83
2018-05-23T10:48:10.448Z,3.10
2018-05-23T10:52:12.996Z,2.87
2018-05-23T10:56:15.545Z,3.20
2018-05-23T11:00:18.082Z,3.70
2018-05-23T11:04:20.617Z,3.30
2018-05-23T11:08:23.163Z,3.00
2018-05-23T11:12:25.708Z,3.03
2018-05-23T11:16:28.241Z,3.40
2018-05-23T11:20:30.768Z,3.17
2018-05-23T11:24:34.083Z,3.20
2018-05-23T11:28:36.634Z,3.50
2018-05-23T11:32:39.172Z,3.37
2018-05-23T11:36:41.708Z,3.17
2018-05-23T11:40:44.236Z,3.10
2018-05-23T11:44:46.768Z,3.60
2018-05-23T11:48:49.305Z,2.90
2018-05-23T11:52:51.840Z,2.93
2018-05-23T11:56:54.363Z,2.70
2018-05-23T12:00:56.895Z,2.90
2018-05-23T12:04:59.429Z,2.57
2018-05-23T12:09:01.972Z,2.90
2018-05-23T12:13:04.511Z,3.03
2018-05-23T12:17:07.061Z,3.07
2018-05-23T12:21:09.574Z,2.70
2018-05-23T12:25:12.141Z,2.83
2018-05-23T12:29:15.446Z,3.00
2018-05-23T12:33:17.981Z,3.30
2018-05-23T12:37:20.524Z,2.83
2018-05-23T12:41:23.056Z,2.80
2018-05-23T12:45:25.593Z,3.00
2018-05-23T12:49:28.127Z,3.00
2018-05-23T12:53:30.665Z,2.90
2018-05-23T12:57:33.201Z,3.00
2018-05-23T13:01:35.732Z,2.90
2018-05-23T13:05:38.273Z,3.20
2018-05-23T13:09:40.816Z,2.87
2018-05-23T13:13:43.358Z,2.90
2018-05-23T13:17:45.971Z,3.20
2018-05-23T13:21:48.459Z,3.10
2018-05-23T13:25:51.848Z,3.07
2018-05-23T13:29:54.337Z,3.00
2018-05-23T13:33:56.889Z,2.70
2018-05-23T13:37:59.437Z,2.97
2018-05-23T13:42:01.967Z,3.10
2018-05-23T13:46:04.512Z,3.03
2018-05-23T13:50:07.060Z,2.83
2018-05-23T13:54:09.596Z,3.23
2018-05-23T13:58:12.144Z,2.90
2018-05-23T14:02:14.673Z,3.10
2018-05-23T14:06:17.221Z,2.90
2018-05-23T14:10:19.764Z,2.90
2018-05-23T14:14:22.301Z,2.70
2018-05-23T14:18:24.840Z,2.60
2018-05-23T14:22:27.393Z,2.90
2018-05-23T14:26:31.044Z,2.70
2018-05-23T14:30:33.591Z,3.00
2018-05-23T14:34:36.949Z,2.77
2018-05-23T14:38:39.504Z,3.17
2018-05-23T14:42:42.046Z,3.00
2018-05-23T14:46:44.564Z,2.80
2018-05-23T14:50:47.096Z,3.30
2018-05-23T14:54:49.647Z,2.60
2018-05-23T14:58:52.196Z,2.60
2018-05-23T15:02:54.741Z,2.47
2018-05-23T15:06:57.264Z,2.90
2018-05-23T15:10:59.801Z,2.90
2018-05-23T15:15:02.350Z,2.87
2018-05-23T15:19:04.885Z,2.63
2018-05-23T15:23:07.421Z,2.63
2018-05-23T15:27:09.973Z,3.00
2018-05-23T15:31:12.501Z,2.60
2018-05-23T15:35:15.056Z,2.72
2018-05-23T15:39:17.607Z,3.00
2018-05-23T15:43:20.140Z,2.50
2018-05-23T15:47:22.661Z,2.77
2018-05-23T15:51:25.205Z,2.62
2018-05-23T15:55:27.740Z,2.40
2018-05-23T15:59:30.286Z,2.73
2018-05-23T16:03:32.825Z,2.43
2018-05-23T16:07:35.345Z,2.30
2018-05-23T16:11:37.900Z,2.58
2018-05-23T16:15:40.448Z,2.47
2018-05-23T16:19:42.981Z,2.30
2018-05-23T16:23:45.520Z,2.57
2018-05-23T16:27:48.809Z,2.40
2018-05-23T16:31:51.347Z,2.33
2018-05-23T16:35:53.896Z,2.45
2018-05-23T16:39:56.445Z,2.40
2018-05-23T16:43:58.998Z,2.23
2018-05-23T16:48:01.520Z,2.50
2018-05-23T16:52:04.079Z,2.05
2018-05-23T16:56:06.624Z,2.00
2018-05-23T17:00:09.163Z,1.97
2018-05-23T17:04:11.712Z,1.83
2018-05-23T17:08:14.256Z,2.00
2018-05-23T17:12:16.785Z,1.70
2018-05-23T17:16:19.325Z,2.17
2018-05-23T17:20:21.872Z,2.03
2018-05-23T17:24:24.412Z,2.13
2018-05-23T17:28:26.968Z,1.70
2018-05-23T17:32:29.493Z,2.20
2018-05-23T17:36:32.053Z,2.27
2018-05-23T17:40:34.592Z,2.23
2018-05-23T17:44:37.132Z,1.90
2018-05-23T17:48:39.680Z,1.97
2018-05-23T17:52:42.204Z,2.23
2018-05-23T17:56:44.735Z,2.13
2018-05-23T18:00:47.273Z,2.00
2018-05-23T18:04:49.817Z,2.23
2018-05-23T18:08:52.361Z,2.07
2018-05-23T18:12:54.893Z,2.40
2018-05-23T18:16:57.454Z,2.33
2018-05-23T18:20:59.989Z,2.60
2018-05-23T18:25:02.541Z,2.50
2018-05-23T18:29:05.083Z,2.40
2018-05-23T18:33:07.614Z,2.30
2018-05-23T18:37:10.166Z,2.30
2018-05-23T18:41:12.712Z,2.60
2018-05-23T18:45:15.262Z,2.40
2018-05-23T18:49:17.865Z,2.30
2018-05-23T18:53:20.366Z,2.40
2018-05-23T18:57:22.920Z,2.30
2018-05-23T19:01:25.477Z,2.27
2018-05-23T19:05:28.059Z,2.07
2018-05-23T19:09:30.572Z,2.30
2018-05-23T19:13:33.108Z,2.57
2018-05-23T19:17:35.669Z,2.17
2018-05-23T19:21:38.205Z,2.30
2018-05-23T19:25:40.751Z,2.50
2018-05-23T19:29:43.320Z,2.20
2018-05-23T19:33:45.860Z,2.07
2018-05-23T19:37:48.403Z,2.00
2018-05-23T19:41:50.959Z,2.27
2018-05-23T19:45:53.508Z,2.07
2018-05-23T19:49:56.876Z,2.10
2018-05-23T19:53:59.409Z,2.50
2018-05-23T19:58:01.942Z,2.23
2018-05-23T20:02:04.497Z,1.73
2018-05-23T20:06:07.046Z,2.00
2018-05-23T20:10:10.361Z,2.50
2018-05-23T20:14:12.991Z,2.10
2018-05-23T20:18:15.444Z,2.30
2018-05-23T20:22:17.980Z,2.17
2018-05-23T20:26:20.539Z,1.90
2018-05-23T20:30:23.086Z,2.00
2018-05-23T20:34:25.638Z,1.80
2018-05-23T20:38:28.177Z,2.00
2018-05-23T20:42:30.720Z,2.13
2018-05-23T20:46:33.272Z,2.13
2018-05-23T20:50:35.807Z,2.13
2018-05-23T20:54:38.362Z,1.77
2018-05-23T20:58:41.022Z,2.00
2018-05-23T21:02:43.437Z,2.00
2018-05-23T21:06:45.983Z,1.90
2018-05-23T21:10:48.524Z,1.93
2018-05-23T21:14:51.067Z,1.87
2018-05-23T21:18:53.596Z,1.77
2018-05-23T21:22:56.140Z,2.30
2018-05-23T21:26:58.683Z,2.20
2018-05-23T21:31:01.228Z,1.87
2018-05-23T21:35:03.845Z,1.80
2018-05-23T21:39:06.312Z,1.73
2018-05-23T21:43:08.844Z,2.00
2018-05-23T21:47:11.384Z,2.10
2018-05-23T21:51:13.920Z,1.90
2018-05-23T21:55:16.462Z,2.20
2018-05-23T21:59:18.968Z,2.10
2018-05-23T22:03:21.501Z,1.80
2018-05-23T22:07:24.042Z,1.90
2018-05-23T22:11:26.573Z,2.10
2018-05-23T22:15:29.116Z,2.00
2018-05-23T22:19:31.645Z,2.10
2018-05-23T22:23:34.183Z,1.67
2018-05-23T22:27:36.711Z,1.73
2018-05-23T22:31:39.248Z,1.73
2018-05-23T22:35:41.789Z,1.87
2018-05-23T22:39:44.304Z,1.90
2018-05-23T22:43:46.833Z,2.20
2018-05-23T22:47:49.372Z,1.90
2018-05-23T22:51:51.912Z,2.10
2018-05-23T22:55:54.444Z,1.80
2018-05-23T22:59:56.972Z,2.23
2018-05-23T23:03:59.484Z,2.20
2018-05-23T23:08:02.021Z,2.40
2018-05-23T23:12:04.564Z,2.00
2018-05-23T23:16:07.102Z,2.00
2018-05-23T23:20:09.644Z,2.00
2018-05-23T23:24:12.261Z,2.20
2018-05-23T23:28:14.797Z,2.17
2018-05-23T23:32:18.097Z,1.90
2018-05-23T23:36:20.647Z,2.20
2018-05-23T23:40:23.185Z,2.27
2018-05-23T23:44:25.708Z,2.00
2018-05-23T23:48:28.241Z,2.20
2018-05-23T23:52:30.777Z,2.27
2018-05-23T23:56:33.311Z,2.00
